sensor_id;sensor_type;location;lat;lon;timestamp;pressure;altitude;pressure_sealevel;temperature;humidity
34983;BME280;21187;50.976;13.720;2024-01-30T00:00:43;99668.22;;;5.62;42.53
34983;BME280;21187;50.976;13.720;2024-01-30T00:05:45;99667.06;;;5.69;42.33
34983;BME280;21187;50.976;13.720;2024-01-30T00:10:47;99672.44;;;5.69;42.24
34983;BME280;21187;50.976;13.720;2024-01-30T00:15:49;99670.53;;;5.74;42.17
34983;BME280;21187;50.976;13.720;2024-01-30T00:20:51;99663.56;;;5.73;42.50
34983;BME280;21187;50.976;13.720;2024-01-30T00:25:53;99661.94;;;5.72;42.48
34983;BME280;21187;50.976;13.720;2024-01-30T00:30:55;99661.44;;;5.70;42.55
34983;BME280;21187;50.976;13.720;2024-01-30T00:35:56;99665.72;;;5.71;42.65
34983;BME280;21187;50.976;13.720;2024-01-30T00:40:58;99662.47;;;5.74;42.37
34983;BME280;21187;50.976;13.720;2024-01-30T00:46:00;99662.19;;;5.76;42.85
34983;BME280;21187;50.976;13.720;2024-01-30T00:51:02;99658.69;;;5.75;42.68
34983;BME280;21187;50.976;13.720;2024-01-30T00:56:04;99664.34;;;5.74;42.67
34983;BME280;21187;50.976;13.720;2024-01-30T01:01:06;99653.09;;;5.72;42.48
34983;BME280;21187;50.976;13.720;2024-01-30T01:06:09;99659.53;;;5.71;42.53
34983;BME280;21187;50.976;13.720;2024-01-30T01:11:11;99663.03;;;5.71;43.00
34983;BME280;21187;50.976;13.720;2024-01-30T01:16:13;99654.75;;;5.68;42.70
34983;BME280;21187;50.976;13.720;2024-01-30T01:21:15;99660.44;;;5.61;42.73
34983;BME280;21187;50.976;13.720;2024-01-30T01:26:18;99655.84;;;5.61;42.97
34983;BME280;21187;50.976;13.720;2024-01-30T01:31:19;99657.19;;;5.64;42.79
34983;BME280;21187;50.976;13.720;2024-01-30T01:36:24;99651.25;;;5.62;43.03
34983;BME280;21187;50.976;13.720;2024-01-30T01:41:30;99652.38;;;5.61;42.72
34983;BME280;21187;50.976;13.720;2024-01-30T01:46:33;99645.41;;;5.55;43.14
34983;BME280;21187;50.976;13.720;2024-01-30T01:51:36;99642.19;;;5.53;43.45
34983;BME280;21187;50.976;13.720;2024-01-30T01:56:38;99649.50;;;5.47;43.42
34983;BME280;21187;50.976;13.720;2024-01-30T02:01:40;99656.78;;;5.41;43.52
34983;BME280;21187;50.976;13.720;2024-01-30T02:06:43;99652.50;;;5.40;42.80
34983;BME280;21187;50.976;13.720;2024-01-30T02:11:46;99636.97;;;5.32;43.27
34983;BME280;21187;50.976;13.720;2024-01-30T02:16:48;99634.31;;;5.27;43.90
34983;BME280;21187;50.976;13.720;2024-01-30T02:21:50;99629.47;;;5.24;44.00
34983;BME280;21187;50.976;13.720;2024-01-30T02:26:52;99632.72;;;5.26;43.84
34983;BME280;21187;50.976;13.720;2024-01-30T02:31:53;99637.53;;;5.24;43.74
34983;BME280;21187;50.976;13.720;2024-01-30T02:36:55;99632.72;;;5.21;44.07
34983;BME280;21187;50.976;13.720;2024-01-30T02:41:57;99634.34;;;5.22;44.11
34983;BME280;21187;50.976;13.720;2024-01-30T02:46:59;99628.44;;;5.20;43.53
34983;BME280;21187;50.976;13.720;2024-01-30T02:52:01;99634.94;;;5.13;44.12
34983;BME280;21187;50.976;13.720;2024-01-30T02:57:03;99623.94;;;5.10;43.84
34983;BME280;21187;50.976;13.720;2024-01-30T03:02:05;99623.13;;;5.09;43.90
34983;BME280;21187;50.976;13.720;2024-01-30T03:07:07;99615.06;;;5.09;44.43
34983;BME280;21187;50.976;13.720;2024-01-30T03:12:09;99616.97;;;5.09;43.99
34983;BME280;21187;50.976;13.720;2024-01-30T03:17:12;99616.97;;;5.09;44.78
34983;BME280;21187;50.976;13.720;2024-01-30T03:22:14;99623.13;;;5.09;44.15
34983;BME280;21187;50.976;13.720;2024-01-30T03:27:16;99617.75;;;5.09;44.21
34983;BME280;21187;50.976;13.720;2024-01-30T03:32:17;99621.53;;;5.08;44.54
34983;BME280;21187;50.976;13.720;2024-01-30T03:37:19;99615.63;;;5.06;44.24
34983;BME280;21187;50.976;13.720;2024-01-30T03:42:21;99618.31;;;5.06;44.75
34983;BME280;21187;50.976;13.720;2024-01-30T03:47:24;99618.88;;;5.03;44.94
34983;BME280;21187;50.976;13.720;2024-01-30T03:52:26;99614.03;;;5.00;44.78
34983;BME280;21187;50.976;13.720;2024-01-30T03:57:28;99623.72;;;4.96;44.97
34983;BME280;21187;50.976;13.720;2024-01-30T04:02:29;99614.34;;;4.93;44.62
34983;BME280;21187;50.976;13.720;2024-01-30T04:07:32;99622.69;;;4.87;44.89
34983;BME280;21187;50.976;13.720;2024-01-30T04:12:34;99619.53;;;4.79;45.17
34983;BME280;21187;50.976;13.720;2024-01-30T04:17:35;99615.25;;;4.73;45.25
34983;BME280;21187;50.976;13.720;2024-01-30T04:22:37;99611.78;;;4.68;45.66
34983;BME280;21187;50.976;13.720;2024-01-30T04:27:39;99606.69;;;4.66;46.11
34983;BME280;21187;50.976;13.720;2024-01-30T04:32:42;99605.13;;;4.60;46.23
34983;BME280;21187;50.976;13.720;2024-01-30T04:37:44;99612.38;;;4.59;45.82
34983;BME280;21187;50.976;13.720;2024-01-30T04:42:46;99607.00;;;4.59;45.98
34983;BME280;21187;50.976;13.720;2024-01-30T04:47:48;99604.06;;;4.56;46.35
34983;BME280;21187;50.976;13.720;2024-01-30T04:52:50;99606.75;;;4.50;45.95
34983;BME280;21187;50.976;13.720;2024-01-30T04:57:52;99602.75;;;4.48;46.80
34983;BME280;21187;50.976;13.720;2024-01-30T05:02:57;99605.91;;;4.55;46.28
34983;BME280;21187;50.976;13.720;2024-01-30T05:07:59;99605.41;;;4.53;46.51
34983;BME280;21187;50.976;13.720;2024-01-30T05:13:01;99604.59;;;4.53;46.77
34983;BME280;21187;50.976;13.720;2024-01-30T05:18:03;99594.97;;;4.46;46.31
34983;BME280;21187;50.976;13.720;2024-01-30T05:23:05;99602.47;;;4.44;46.86
34983;BME280;21187;50.976;13.720;2024-01-30T05:28:07;99591.22;;;4.47;46.83
34983;BME280;21187;50.976;13.720;2024-01-30T05:33:09;99591.75;;;4.44;46.70
34983;BME280;21187;50.976;13.720;2024-01-30T05:38:15;99591.25;;;4.37;46.78
34983;BME280;21187;50.976;13.720;2024-01-30T05:43:18;99593.38;;;4.35;46.86
34983;BME280;21187;50.976;13.720;2024-01-30T05:48:20;99587.50;;;4.38;46.82
34983;BME280;21187;50.976;13.720;2024-01-30T05:53:22;99584.75;;;4.43;46.75
34983;BME280;21187;50.976;13.720;2024-01-30T05:58:24;99582.38;;;4.42;47.14
34983;BME280;21187;50.976;13.720;2024-01-30T06:03:26;99588.00;;;4.45;46.75
34983;BME280;21187;50.976;13.720;2024-01-30T06:08:28;99592.28;;;4.46;46.87
34983;BME280;21187;50.976;13.720;2024-01-30T06:13:30;99591.47;;;4.41;47.23
34983;BME280;21187;50.976;13.720;2024-01-30T06:18:33;99592.56;;;4.40;46.95
34983;BME280;21187;50.976;13.720;2024-01-30T06:23:35;99591.75;;;4.44;46.88
34983;BME280;21187;50.976;13.720;2024-01-30T06:28:37;99593.91;;;4.47;46.57
34983;BME280;21187;50.976;13.720;2024-01-30T06:33:39;99588.28;;;4.44;46.88
34983;BME280;21187;50.976;13.720;2024-01-30T06:38:44;99585.31;;;4.40;46.97
34983;BME280;21187;50.976;13.720;2024-01-30T06:43:46;99585.31;;;4.45;46.56
34983;BME280;21187;50.976;13.720;2024-01-30T06:48:48;99574.03;;;4.48;46.42
34983;BME280;21187;50.976;13.720;2024-01-30T06:53:51;99579.38;;;4.54;47.04
34983;BME280;21187;50.976;13.720;2024-01-30T06:58:53;99574.25;;;4.57;46.89
34983;BME280;21187;50.976;13.720;2024-01-30T07:03:55;99580.94;;;4.65;47.38
34983;BME280;21187;50.976;13.720;2024-01-30T07:08:57;99584.09;;;4.77;46.89
34983;BME280;21187;50.976;13.720;2024-01-30T07:13:59;99584.56;;;4.95;46.73
34983;BME280;21187;50.976;13.720;2024-01-30T07:19:01;99584.69;;;5.19;46.97
34983;BME280;21187;50.976;13.720;2024-01-30T07:24:05;99574.56;;;5.45;47.01
34983;BME280;21187;50.976;13.720;2024-01-30T07:29:07;99591.31;;;5.66;46.54
34983;BME280;21187;50.976;13.720;2024-01-30T07:34:09;99596.22;;;5.89;46.84
34983;BME280;21187;50.976;13.720;2024-01-30T07:39:11;99595.94;;;6.20;46.56
34983;BME280;21187;50.976;13.720;2024-01-30T07:44:13;99595.28;;;6.57;46.18
34983;BME280;21187;50.976;13.720;2024-01-30T07:49:15;99588.44;;;6.65;46.56
34983;BME280;21187;50.976;13.720;2024-01-30T07:54:17;99580.97;;;6.81;46.45
34983;BME280;21187;50.976;13.720;2024-01-30T07:59:19;99587.22;;;6.95;46.29
34983;BME280;21187;50.976;13.720;2024-01-30T08:04:23;99589.94;;;7.14;46.43
34983;BME280;21187;50.976;13.720;2024-01-30T08:09:25;99589.34;;;7.37;46.15
34983;BME280;21187;50.976;13.720;2024-01-30T08:14:27;99582.66;;;7.67;45.88
34983;BME280;21187;50.976;13.720;2024-01-30T08:19:29;99588.13;;;7.95;45.63
34983;BME280;21187;50.976;13.720;2024-01-30T08:24:31;99586.16;;;8.14;45.69
34983;BME280;21187;50.976;13.720;2024-01-30T08:29:33;99582.25;;;8.21;45.99
34983;BME280;21187;50.976;13.720;2024-01-30T08:34:35;99584.88;;;8.40;45.36
34983;BME280;21187;50.976;13.720;2024-01-30T08:39:37;99588.19;;;8.51;45.12
34983;BME280;21187;50.976;13.720;2024-01-30T08:44:39;99585.38;;;8.70;45.05
34983;BME280;21187;50.976;13.720;2024-01-30T08:49:41;99580.22;;;8.96;45.13
34983;BME280;21187;50.976;13.720;2024-01-30T08:54:45;99585.06;;;9.22;44.58
34983;BME280;21187;50.976;13.720;2024-01-30T08:59:48;99579.75;;;9.53;44.17
34983;BME280;21187;50.976;13.720;2024-01-30T09:04:50;99584.03;;;9.77;44.18
34983;BME280;21187;50.976;13.720;2024-01-30T09:09:52;99597.06;;;10.06;44.29
34983;BME280;21187;50.976;13.720;2024-01-30T09:14:54;99605.59;;;10.22;43.72
34983;BME280;21187;50.976;13.720;2024-01-30T09:19:57;99611.38;;;10.29;43.94
34983;BME280;21187;50.976;13.720;2024-01-30T09:24:58;99619.44;;;10.52;43.43
34983;BME280;21187;50.976;13.720;2024-01-30T09:30:01;99615.34;;;10.72;43.45
34983;BME280;21187;50.976;13.720;2024-01-30T09:35:03;99618.91;;;10.99;42.56
34983;BME280;21187;50.976;13.720;2024-01-30T09:40:06;99616.84;;;11.13;42.56
34983;BME280;21187;50.976;13.720;2024-01-30T09:45:10;99605.72;;;11.32;42.58
34983;BME280;21187;50.976;13.720;2024-01-30T09:50:15;99606.34;;;11.38;42.29
34983;BME280;21187;50.976;13.720;2024-01-30T09:55:17;99606.84;;;11.40;42.51
34983;BME280;21187;50.976;13.720;2024-01-30T10:00:19;99602.81;;;11.55;42.11
34983;BME280;21187;50.976;13.720;2024-01-30T10:05:26;99600.56;;;11.75;41.85
34983;BME280;21187;50.976;13.720;2024-01-30T10:10:28;99589.03;;;11.87;41.70
34983;BME280;21187;50.976;13.720;2024-01-30T10:15:30;99589.34;;;11.94;41.70
34983;BME280;21187;50.976;13.720;2024-01-30T10:20:32;99577.88;;;11.79;41.42
34983;BME280;21187;50.976;13.720;2024-01-30T10:25:35;99579.03;;;11.70;41.02
34983;BME280;21187;50.976;13.720;2024-01-30T10:30:37;99565.31;;;11.57;41.48
34983;BME280;21187;50.976;13.720;2024-01-30T10:35:39;99572.69;;;11.39;41.28
34983;BME280;21187;50.976;13.720;2024-01-30T10:40:43;99556.88;;;11.24;41.03
34983;BME280;21187;50.976;13.720;2024-01-30T10:45:49;99558.81;;;11.23;41.39
34983;BME280;21187;50.976;13.720;2024-01-30T10:50:53;99549.22;;;11.43;41.39
34983;BME280;21187;50.976;13.720;2024-01-30T10:56:03;99539.19;;;11.35;41.09
34983;BME280;21187;50.976;13.720;2024-01-30T11:01:07;99532.78;;;11.40;40.97
34983;BME280;21187;50.976;13.720;2024-01-30T11:06:12;99531.84;;;11.44;41.06
34983;BME280;21187;50.976;13.720;2024-01-30T11:11:20;99532.44;;;11.59;41.18
34983;BME280;21187;50.976;13.720;2024-01-30T11:16:22;99517.88;;;11.72;40.63
34983;BME280;21187;50.976;13.720;2024-01-30T11:21:25;99503.63;;;11.84;40.54
34983;BME280;21187;50.976;13.720;2024-01-30T11:26:31;99508.06;;;11.89;40.33
34983;BME280;21187;50.976;13.720;2024-01-30T11:31:33;99492.72;;;11.93;40.42
34983;BME280;21187;50.976;13.720;2024-01-30T11:36:36;99496.56;;;12.01;40.37
34983;BME280;21187;50.976;13.720;2024-01-30T11:41:39;99497.19;;;12.06;40.25
34983;BME280;21187;50.976;13.720;2024-01-30T11:46:42;99493.81;;;12.09;40.33
34983;BME280;21187;50.976;13.720;2024-01-30T11:51:48;99486.31;;;12.06;40.25
34983;BME280;21187;50.976;13.720;2024-01-30T11:56:51;99484.25;;;12.03;40.21
34983;BME280;21187;50.976;13.720;2024-01-30T12:01:53;99484.91;;;12.00;40.30
34983;BME280;21187;50.976;13.720;2024-01-30T12:06:56;99470.53;;;11.91;40.40
34983;BME280;21187;50.976;13.720;2024-01-30T12:11:58;99481.25;;;11.96;40.29
34983;BME280;21187;50.976;13.720;2024-01-30T12:16:59;99482.66;;;12.02;40.22
34983;BME280;21187;50.976;13.720;2024-01-30T12:22:01;99473.06;;;12.05;39.97
34983;BME280;21187;50.976;13.720;2024-01-30T12:27:04;99478.53;;;11.96;39.91
34983;BME280;21187;50.976;13.720;2024-01-30T12:32:07;99475.66;;;11.83;40.06
34983;BME280;21187;50.976;13.720;2024-01-30T12:37:08;99471.56;;;11.77;40.11
34983;BME280;21187;50.976;13.720;2024-01-30T12:42:11;99463.41;;;11.77;40.08
34983;BME280;21187;50.976;13.720;2024-01-30T12:47:13;99464.03;;;11.83;40.16
34983;BME280;21187;50.976;13.720;2024-01-30T12:52:17;99461.28;;;11.92;40.01
34983;BME280;21187;50.976;13.720;2024-01-30T12:57:19;99449.94;;;11.90;39.89
34983;BME280;21187;50.976;13.720;2024-01-30T13:02:21;99453.97;;;11.83;40.05
34983;BME280;21187;50.976;13.720;2024-01-30T13:07:24;99458.16;;;11.72;40.06
34983;BME280;21187;50.976;13.720;2024-01-30T13:12:26;99455.84;;;11.92;39.79
34983;BME280;21187;50.976;13.720;2024-01-30T13:17:28;99452.44;;;12.55;39.07
34983;BME280;21187;50.976;13.720;2024-01-30T13:22:31;99456.56;;;13.15;38.19
34983;BME280;21187;50.976;13.720;2024-01-30T13:27:32;99448.22;;;13.67;37.76
34983;BME280;21187;50.976;13.720;2024-01-30T13:32:35;99454.59;;;14.73;37.21
34983;BME280;21187;50.976;13.720;2024-01-30T13:37:37;99446.25;;;15.39;36.40
34983;BME280;21187;50.976;13.720;2024-01-30T13:42:39;99443.63;;;15.90;35.89
34983;BME280;21187;50.976;13.720;2024-01-30T13:47:41;99436.41;;;16.18;35.59
34983;BME280;21187;50.976;13.720;2024-01-30T13:52:43;99432.56;;;16.19;35.07
34983;BME280;21187;50.976;13.720;2024-01-30T13:57:46;99441.56;;;16.03;34.78
34983;BME280;21187;50.976;13.720;2024-01-30T14:02:52;99428.44;;;16.44;34.21
34983;BME280;21187;50.976;13.720;2024-01-30T14:07:59;99418.78;;;16.70;34.00
34983;BME280;21187;50.976;13.720;2024-01-30T14:13:02;99421.81;;;17.04;33.67
34983;BME280;21187;50.976;13.720;2024-01-30T14:18:05;99419.28;;;16.76;33.94
34983;BME280;21187;50.976;13.720;2024-01-30T14:23:07;99434.13;;;16.20;34.09
34983;BME280;21187;50.976;13.720;2024-01-30T14:28:09;99427.91;;;15.55;34.23
34983;BME280;21187;50.976;13.720;2024-01-30T14:33:11;99435.66;;;14.93;34.88
34983;BME280;21187;50.976;13.720;2024-01-30T14:38:13;99435.16;;;13.97;35.59
34983;BME280;21187;50.976;13.720;2024-01-30T14:43:15;99428.56;;;13.03;36.58
34983;BME280;21187;50.976;13.720;2024-01-30T14:48:17;99439.59;;;12.43;37.14
34983;BME280;21187;50.976;13.720;2024-01-30T14:53:20;99426.44;;;11.94;37.62
34983;BME280;21187;50.976;13.720;2024-01-30T14:58:22;99441.66;;;11.47;37.69
34983;BME280;21187;50.976;13.720;2024-01-30T15:03:24;99438.22;;;11.21;38.26
34983;BME280;21187;50.976;13.720;2024-01-30T15:08:29;99434.94;;;10.89;38.13
34983;BME280;21187;50.976;13.720;2024-01-30T15:13:33;99437.63;;;10.54;38.43
34983;BME280;21187;50.976;13.720;2024-01-30T15:18:35;99442.97;;;10.19;38.87
34983;BME280;21187;50.976;13.720;2024-01-30T15:23:37;99438.59;;;9.82;39.35
34983;BME280;21187;50.976;13.720;2024-01-30T15:28:39;99435.38;;;9.40;40.21
34983;BME280;21187;50.976;13.720;2024-01-30T15:33:41;99438.22;;;9.35;39.82
34983;BME280;21187;50.976;13.720;2024-01-30T15:38:44;99437.75;;;9.10;40.09
34983;BME280;21187;50.976;13.720;2024-01-30T15:43:46;99438.03;;;9.00;40.05
34983;BME280;21187;50.976;13.720;2024-01-30T15:48:47;99438.84;;;8.87;39.97
34983;BME280;21187;50.976;13.720;2024-01-30T15:53:50;99441.53;;;8.64;40.53
34983;BME280;21187;50.976;13.720;2024-01-30T15:58:52;99448.81;;;8.41;40.78
34983;BME280;21187;50.976;13.720;2024-01-30T16:03:54;99459.28;;;8.42;40.43
34983;BME280;21187;50.976;13.720;2024-01-30T16:08:56;99455.28;;;8.40;40.50
34983;BME280;21187;50.976;13.720;2024-01-30T16:13:58;99463.28;;;8.31;40.68
34983;BME280;21187;50.976;13.720;2024-01-30T16:19:00;99457.03;;;8.08;40.74
34983;BME280;21187;50.976;13.720;2024-01-30T16:24:02;99464.84;;;7.81;41.68
34983;BME280;21187;50.976;13.720;2024-01-30T16:29:05;99455.25;;;7.75;41.51
34983;BME280;21187;50.976;13.720;2024-01-30T16:34:07;99464.28;;;7.52;41.90
34983;BME280;21187;50.976;13.720;2024-01-30T16:39:10;99464.75;;;7.26;42.49
34983;BME280;21187;50.976;13.720;2024-01-30T16:44:12;99476.50;;;7.16;42.67
34983;BME280;21187;50.976;13.720;2024-01-30T16:49:15;99474.50;;;7.22;42.66
34983;BME280;21187;50.976;13.720;2024-01-30T16:54:18;99473.25;;;7.00;42.89
34983;BME280;21187;50.976;13.720;2024-01-30T16:59:20;99486.41;;;7.02;43.13
34983;BME280;21187;50.976;13.720;2024-01-30T17:04:22;99489.09;;;7.02;42.78
34983;BME280;21187;50.976;13.720;2024-01-30T17:09:24;99486.38;;;6.88;43.17
34983;BME280;21187;50.976;13.720;2024-01-30T17:14:26;99497.56;;;6.95;43.04
34983;BME280;21187;50.976;13.720;2024-01-30T17:19:30;99492.97;;;6.95;42.98
34983;BME280;21187;50.976;13.720;2024-01-30T17:24:32;99481.41;;;6.95;42.85
34983;BME280;21187;50.976;13.720;2024-01-30T17:29:50;99478.22;;;6.93;43.02
34983;BME280;21187;50.976;13.720;2024-01-30T17:34:52;99476.59;;;6.92;42.97
34983;BME280;21187;50.976;13.720;2024-01-30T17:39:55;99480.38;;;6.91;42.86
34983;BME280;21187;50.976;13.720;2024-01-30T17:44:57;99477.19;;;6.89;43.17
34983;BME280;21187;50.976;13.720;2024-01-30T17:50:00;99480.53;;;6.80;43.08
34983;BME280;21187;50.976;13.720;2024-01-30T17:55:02;99486.75;;;6.81;43.20
34983;BME280;21187;50.976;13.720;2024-01-30T18:00:06;99491.91;;;6.77;43.37
34983;BME280;21187;50.976;13.720;2024-01-30T18:05:11;99493.31;;;6.50;44.03
34983;BME280;21187;50.976;13.720;2024-01-30T18:10:14;99499.88;;;6.44;44.15
34983;BME280;21187;50.976;13.720;2024-01-30T18:15:21;99499.88;;;6.44;44.25
34983;BME280;21187;50.976;13.720;2024-01-30T18:20:23;99496.53;;;6.53;43.97
34983;BME280;21187;50.976;13.720;2024-01-30T18:25:25;99497.25;;;6.39;44.45
34983;BME280;21187;50.976;13.720;2024-01-30T18:30:28;99509.28;;;6.23;44.30
34983;BME280;21187;50.976;13.720;2024-01-30T18:35:30;99504.25;;;6.16;44.75
34983;BME280;21187;50.976;13.720;2024-01-30T18:40:33;99512.81;;;5.94;45.36
34983;BME280;21187;50.976;13.720;2024-01-30T18:45:35;99515.78;;;5.92;45.00
34983;BME280;21187;50.976;13.720;2024-01-30T18:50:37;99511.78;;;5.90;45.14
34983;BME280;21187;50.976;13.720;2024-01-30T18:55:39;99516.78;;;5.72;45.58
34983;BME280;21187;50.976;13.720;2024-01-30T19:00:41;99521.59;;;5.75;45.45
34983;BME280;21187;50.976;13.720;2024-01-30T19:05:49;99505.59;;;5.89;45.27
34983;BME280;21187;50.976;13.720;2024-01-30T19:10:51;99508.81;;;5.91;44.94
34983;BME280;21187;50.976;13.720;2024-01-30T19:15:55;99512.78;;;5.99;44.58
34983;BME280;21187;50.976;13.720;2024-01-30T19:20:59;99526.69;;;6.06;45.01
34983;BME280;21187;50.976;13.720;2024-01-30T19:26:02;99527.84;;;6.00;45.26
34983;BME280;21187;50.976;13.720;2024-01-30T19:31:05;99525.16;;;5.95;45.18
34983;BME280;21187;50.976;13.720;2024-01-30T19:36:08;99525.47;;;5.93;45.33
34983;BME280;21187;50.976;13.720;2024-01-30T19:41:13;99536.75;;;5.95;45.41
34983;BME280;21187;50.976;13.720;2024-01-30T19:46:15;99554.25;;;5.93;44.98
34983;BME280;21187;50.976;13.720;2024-01-30T19:51:18;99544.84;;;5.90;45.17
34983;BME280;21187;50.976;13.720;2024-01-30T19:56:20;99549.53;;;5.79;45.33
34983;BME280;21187;50.976;13.720;2024-01-30T20:01:24;99558.19;;;5.71;45.67
34983;BME280;21187;50.976;13.720;2024-01-30T20:06:26;99545.69;;;5.56;46.26
34983;BME280;21187;50.976;13.720;2024-01-30T20:11:28;99556.53;;;5.46;46.53
34983;BME280;21187;50.976;13.720;2024-01-30T20:16:38;99552.44;;;5.54;46.44
34983;BME280;21187;50.976;13.720;2024-01-30T20:21:41;99563.91;;;5.64;46.25
34983;BME280;21187;50.976;13.720;2024-01-30T20:26:44;99564.69;;;5.70;45.90
34983;BME280;21187;50.976;13.720;2024-01-30T20:31:47;99562.53;;;5.67;45.96
34983;BME280;21187;50.976;13.720;2024-01-30T20:36:49;99564.84;;;5.49;46.48
34983;BME280;21187;50.976;13.720;2024-01-30T20:41:51;99570.81;;;5.41;46.55
34983;BME280;21187;50.976;13.720;2024-01-30T20:46:54;99576.19;;;5.41;46.42
34983;BME280;21187;50.976;13.720;2024-01-30T20:51:56;99575.88;;;5.48;46.56
34983;BME280;21187;50.976;13.720;2024-01-30T20:56:58;99568.84;;;5.52;46.10
34983;BME280;21187;50.976;13.720;2024-01-30T21:02:00;99574.19;;;5.57;46.52
34983;BME280;21187;50.976;13.720;2024-01-30T21:07:02;99569.56;;;5.63;46.20
34983;BME280;21187;50.976;13.720;2024-01-30T21:12:04;99578.69;;;5.62;46.53
34983;BME280;21187;50.976;13.720;2024-01-30T21:17:06;99576.00;;;5.62;46.26
34983;BME280;21187;50.976;13.720;2024-01-30T21:22:08;99573.91;;;5.59;46.72
34983;BME280;21187;50.976;13.720;2024-01-30T21:27:10;99581.97;;;5.59;46.40
34983;BME280;21187;50.976;13.720;2024-01-30T21:32:12;99576.59;;;5.59;46.55
34983;BME280;21187;50.976;13.720;2024-01-30T21:37:15;99573.84;;;5.64;46.20
34983;BME280;21187;50.976;13.720;2024-01-30T21:42:17;99585.97;;;5.61;46.52
34983;BME280;21187;50.976;13.720;2024-01-30T21:47:22;99581.44;;;5.57;46.49
34983;BME280;21187;50.976;13.720;2024-01-30T21:52:23;99584.44;;;5.50;46.50
34983;BME280;21187;50.976;13.720;2024-01-30T21:57:25;99585.25;;;5.50;46.82
34983;BME280;21187;50.976;13.720;2024-01-30T22:02:27;99592.78;;;5.48;46.89
34983;BME280;21187;50.976;13.720;2024-01-30T22:07:29;99598.72;;;5.45;46.77
34983;BME280;21187;50.976;13.720;2024-01-30T22:12:31;99591.75;;;5.44;46.79
34983;BME280;21187;50.976;13.720;2024-01-30T22:17:33;99591.44;;;5.51;46.95
34983;BME280;21187;50.976;13.720;2024-01-30T22:22:35;99599.44;;;5.56;47.05
34983;BME280;21187;50.976;13.720;2024-01-30T22:27:37;99595.94;;;5.61;46.61
34983;BME280;21187;50.976;13.720;2024-01-30T22:32:42;99592.72;;;5.59;46.98
34983;BME280;21187;50.976;13.720;2024-01-30T22:37:44;99599.19;;;5.53;47.15
34983;BME280;21187;50.976;13.720;2024-01-30T22:42:46;99600.34;;;5.46;47.18
34983;BME280;21187;50.976;13.720;2024-01-30T22:47:48;99602.25;;;5.41;46.73
34983;BME280;21187;50.976;13.720;2024-01-30T22:52:51;99602.50;;;5.44;47.22
34983;BME280;21187;50.976;13.720;2024-01-30T22:57:53;99605.72;;;5.46;47.05
34983;BME280;21187;50.976;13.720;2024-01-30T23:02:55;99609.44;;;5.50;46.99
34983;BME280;21187;50.976;13.720;2024-01-30T23:07:58;99607.25;;;5.53;47.24
34983;BME280;21187;50.976;13.720;2024-01-30T23:13:00;99603.22;;;5.55;47.11
34983;BME280;21187;50.976;13.720;2024-01-30T23:18:02;99602.41;;;5.55;47.14
34983;BME280;21187;50.976;13.720;2024-01-30T23:23:07;99605.41;;;5.53;47.10
34983;BME280;21187;50.976;13.720;2024-01-30T23:28:09;99600.81;;;5.54;47.62
34983;BME280;21187;50.976;13.720;2024-01-30T23:33:12;99610.19;;;5.91;48.37
34983;BME280;21187;50.976;13.720;2024-01-30T23:38:14;99606.03;;;6.57;49.17
34983;BME280;21187;50.976;13.720;2024-01-30T23:43:16;99612.50;;;7.19;50.88
34983;BME280;21187;50.976;13.720;2024-01-30T23:48:18;99611.31;;;7.96;51.18
34983;BME280;21187;50.976;13.720;2024-01-30T23:53:20;99616.34;;;8.44;50.68
34983;BME280;21187;50.976;13.720;2024-01-30T23:58:22;99619.38;;;8.71;50.72
